createdAt,value
2017-09-10T00:01:20.755Z,8.73
2017-09-10T00:03:47.418Z,11.30
2017-09-10T00:06:14.049Z,8.30
2017-09-10T00:08:40.677Z,7.10
2017-09-10T00:11:07.301Z,4.93
2017-09-10T00:13:33.934Z,6.47
2017-09-10T00:16:00.579Z,6.90
2017-09-10T00:18:27.202Z,7.00
2017-09-10T00:20:57.877Z,6.50
2017-09-10T00:23:27.118Z,7.43
2017-09-10T00:25:57.352Z,7.23
2017-09-10T00:28:24.019Z,6.53
2017-09-10T00:30:54.695Z,8.80
2017-09-10T00:33:24.958Z,7.83
2017-09-10T00:35:51.808Z,7.17
2017-09-10T00:38:18.440Z,6.33
2017-09-10T00:40:45.081Z,6.40
2017-09-10T00:43:11.690Z,8.37
2017-09-10T00:45:38.332Z,6.63
2017-09-10T00:48:04.968Z,8.67
2017-09-10T00:50:31.603Z,7.90
2017-09-10T00:52:58.266Z,9.20
2017-09-10T00:55:24.909Z,7.20
2017-09-10T00:57:51.575Z,7.30
2017-09-10T01:00:18.191Z,7.83
2017-09-10T01:02:44.844Z,7.87
2017-09-10T01:05:11.470Z,8.10
2017-09-10T01:07:38.090Z,8.47
2017-09-10T01:10:04.753Z,10.10
2017-09-10T01:12:31.375Z,6.87
2017-09-10T01:14:57.997Z,4.57
2017-09-10T01:17:24.618Z,4.90
2017-09-10T01:19:51.242Z,3.90
2017-09-10T01:22:18.157Z,3.90
2017-09-10T01:24:44.796Z,11.47
2017-09-10T01:27:11.461Z,6.40
2017-09-10T01:29:38.074Z,9.00
2017-09-10T01:32:04.733Z,6.60
2017-09-10T01:34:31.367Z,5.77
2017-09-10T01:36:57.997Z,7.20
2017-09-10T01:39:24.641Z,6.50
2017-09-10T01:41:51.246Z,7.50
2017-09-10T01:44:17.879Z,7.60
2017-09-10T01:46:44.528Z,6.67
2017-09-10T01:49:11.147Z,7.90
2017-09-10T01:51:37.791Z,7.47
2017-09-10T01:54:04.407Z,7.30
2017-09-10T01:56:31.050Z,7.97
2017-09-10T01:58:57.681Z,8.27
2017-09-10T02:01:24.317Z,7.83
2017-09-10T02:03:50.962Z,7.60
2017-09-10T02:06:17.595Z,8.00
2017-09-10T02:08:44.217Z,6.10
2017-09-10T02:11:10.861Z,8.00
2017-09-10T02:13:37.498Z,8.73
2017-09-10T02:16:04.127Z,8.43
2017-09-10T02:18:30.762Z,7.40
2017-09-10T02:20:57.418Z,11.43
2017-09-10T02:23:24.052Z,9.13
2017-09-10T02:25:50.686Z,8.60
2017-09-10T02:28:17.339Z,7.37
2017-09-10T02:30:43.968Z,6.93
2017-09-10T02:33:10.601Z,7.37
2017-09-10T02:35:37.223Z,8.20
2017-09-10T02:38:03.852Z,7.87
2017-09-10T02:40:30.506Z,7.70
2017-09-10T02:42:57.148Z,7.50
2017-09-10T02:45:23.806Z,7.07
2017-09-10T02:47:50.424Z,7.93
2017-09-10T02:50:17.055Z,7.83
2017-09-10T02:52:43.671Z,7.90
2017-09-10T02:55:10.294Z,9.50
2017-09-10T02:57:36.949Z,8.23
2017-09-10T03:00:03.811Z,7.03
2017-09-10T03:02:30.429Z,7.10
2017-09-10T03:04:57.067Z,8.40
2017-09-10T03:07:23.693Z,8.80
2017-09-10T03:09:50.340Z,7.70
2017-09-10T03:12:16.963Z,8.20
2017-09-10T03:14:43.579Z,7.20
2017-09-10T03:17:10.226Z,8.53
2017-09-10T03:19:36.831Z,8.83
2017-09-10T03:22:03.468Z,7.50
2017-09-10T03:24:30.097Z,7.03
2017-09-10T03:26:56.733Z,7.30
2017-09-10T03:29:23.367Z,9.50
2017-09-10T03:31:50.023Z,9.83
2017-09-10T03:34:16.679Z,10.47
2017-09-10T03:36:43.292Z,9.47
2017-09-10T03:39:09.929Z,9.20
2017-09-10T03:41:36.564Z,8.27
2017-09-10T03:44:03.202Z,8.67
2017-09-10T03:46:29.834Z,6.10
2017-09-10T03:48:56.468Z,7.07
2017-09-10T03:51:23.074Z,7.57
2017-09-10T03:53:49.735Z,7.63
2017-09-10T03:56:16.356Z,8.07
2017-09-10T03:58:42.974Z,9.77
2017-09-10T04:01:09.624Z,9.17
2017-09-10T04:03:36.259Z,8.07
2017-09-10T04:06:02.904Z,8.20
2017-09-10T04:08:29.527Z,7.67
2017-09-10T04:10:56.194Z,9.57
2017-09-10T04:13:22.811Z,8.00
2017-09-10T04:15:49.467Z,12.47
2017-09-10T04:18:16.119Z,9.00
2017-09-10T04:20:42.759Z,11.13
2017-09-10T04:23:09.415Z,10.10
2017-09-10T04:25:36.059Z,10.67
2017-09-10T04:28:02.698Z,8.27
2017-09-10T04:30:29.549Z,8.57
2017-09-10T04:32:56.157Z,9.27
2017-09-10T04:35:22.809Z,10.00
2017-09-10T04:37:49.836Z,8.50
2017-09-10T04:40:16.488Z,9.80
2017-09-10T04:42:43.111Z,8.13
2017-09-10T04:45:09.798Z,9.30
2017-09-10T04:47:36.439Z,10.65
2017-09-10T04:50:03.187Z,9.47
2017-09-10T04:52:29.824Z,9.00
2017-09-10T04:54:56.451Z,9.93
2017-09-10T04:57:23.103Z,9.63
2017-09-10T04:59:49.724Z,9.33
2017-09-10T05:02:16.373Z,9.37
2017-09-10T05:04:42.978Z,9.47
2017-09-10T05:07:09.619Z,9.17
2017-09-10T05:09:36.263Z,10.17
2017-09-10T05:12:02.907Z,9.90
2017-09-10T05:14:29.596Z,8.60
2017-09-10T05:16:56.217Z,10.83
2017-09-10T05:19:22.838Z,9.17
2017-09-10T05:21:54.379Z,10.07
2017-09-10T05:24:24.974Z,9.83
2017-09-10T05:26:51.638Z,9.37
2017-09-10T05:29:18.297Z,10.03
2017-09-10T05:31:48.271Z,8.17
2017-09-10T05:34:16.111Z,7.73
2017-09-10T05:36:42.724Z,7.30
2017-09-10T05:39:09.763Z,9.00
2017-09-10T05:41:36.403Z,9.30
2017-09-10T05:44:03.055Z,9.73
2017-09-10T05:46:29.690Z,8.37
2017-09-10T05:48:56.327Z,8.87
2017-09-10T05:51:22.949Z,9.03
2017-09-10T05:53:49.587Z,10.87
2017-09-10T05:56:16.209Z,9.70
2017-09-10T05:58:42.828Z,8.60
2017-09-10T06:01:09.459Z,9.20
2017-09-10T06:03:36.059Z,7.40
2017-09-10T06:06:02.699Z,9.83
2017-09-10T06:08:29.324Z,8.97
2017-09-10T06:10:55.946Z,8.80
2017-09-10T06:13:22.587Z,9.60
2017-09-10T06:15:49.231Z,9.43
2017-09-10T06:18:15.871Z,9.20
2017-09-10T06:20:42.506Z,9.50
2017-09-10T06:23:09.154Z,10.10
2017-09-10T06:25:35.790Z,10.17
2017-09-10T06:28:02.438Z,7.83
2017-09-10T06:30:29.058Z,9.17
2017-09-10T06:32:55.696Z,8.53
2017-09-10T06:35:22.339Z,8.30
2017-09-10T06:37:48.980Z,8.13
2017-09-10T06:40:15.620Z,9.70
2017-09-10T06:42:42.231Z,8.10
2017-09-10T06:45:08.854Z,7.40
2017-09-10T06:47:35.503Z,7.67
2017-09-10T06:50:02.134Z,8.10
2017-09-10T06:52:28.781Z,8.40
2017-09-10T06:54:55.398Z,9.23
2017-09-10T06:57:22.070Z,9.00
2017-09-10T06:59:48.706Z,9.43
2017-09-10T07:02:15.326Z,9.20
2017-09-10T07:04:41.973Z,9.20
2017-09-10T07:07:08.622Z,10.70
2017-09-10T07:09:35.239Z,9.30
2017-09-10T07:12:01.875Z,9.50
2017-09-10T07:14:28.503Z,8.97
2017-09-10T07:16:55.162Z,9.23
2017-09-10T07:19:22.683Z,9.80
2017-09-10T07:21:49.327Z,6.50
2017-09-10T07:24:15.958Z,7.20
2017-09-10T07:26:42.620Z,6.53
2017-09-10T07:29:09.245Z,6.90
2017-09-10T07:31:35.906Z,5.40
2017-09-10T07:34:02.506Z,5.07
2017-09-10T07:36:29.120Z,3.97
2017-09-10T07:38:55.739Z,3.53
2017-09-10T07:41:22.378Z,4.20
2017-09-10T07:43:49.010Z,3.47
2017-09-10T07:46:15.660Z,3.30
2017-09-10T07:48:42.277Z,3.00
2017-09-10T07:51:08.907Z,4.63
2017-09-10T07:53:35.546Z,3.43
2017-09-10T07:56:02.176Z,3.70
2017-09-10T07:58:28.814Z,3.03
2017-09-10T08:00:55.447Z,3.00
2017-09-10T08:03:22.083Z,2.57
2017-09-10T08:05:48.700Z,3.40
2017-09-10T08:08:15.348Z,2.93
2017-09-10T08:10:41.954Z,2.60
2017-09-10T08:13:08.586Z,3.80
2017-09-10T08:15:35.195Z,1.90
2017-09-10T08:18:01.845Z,2.57
2017-09-10T08:20:28.456Z,3.30
2017-09-10T08:22:55.098Z,2.03
2017-09-10T08:25:21.711Z,2.63
2017-09-10T08:27:48.339Z,2.43
2017-09-10T08:30:14.980Z,2.33
2017-09-10T08:32:41.628Z,1.90
2017-09-10T08:35:08.268Z,1.40
2017-09-10T08:37:34.886Z,2.47
2017-09-10T08:40:01.556Z,2.63
2017-09-10T08:42:28.170Z,2.20
2017-09-10T08:44:54.782Z,2.00
2017-09-10T08:47:21.408Z,2.67
2017-09-10T08:49:48.059Z,4.50
2017-09-10T08:52:14.670Z,2.53
2017-09-10T08:54:41.274Z,2.20
2017-09-10T08:57:07.923Z,2.40
2017-09-10T08:59:34.562Z,2.50
2017-09-10T09:02:01.231Z,2.80
2017-09-10T09:04:27.877Z,1.83
2017-09-10T09:06:54.499Z,2.47
2017-09-10T09:09:21.137Z,1.60
2017-09-10T09:11:47.771Z,2.87
2017-09-10T09:14:14.993Z,2.90
2017-09-10T09:16:41.595Z,2.07
2017-09-10T09:19:08.210Z,2.37
2017-09-10T09:21:34.841Z,1.70
2017-09-10T09:24:01.466Z,2.60
2017-09-10T09:26:28.094Z,2.10
2017-09-10T09:28:54.690Z,2.10
2017-09-10T09:31:21.349Z,1.80
2017-09-10T09:33:47.968Z,2.13
2017-09-10T09:36:14.614Z,2.10
2017-09-10T09:38:41.230Z,1.53
2017-09-10T09:41:07.895Z,2.13
2017-09-10T09:43:34.518Z,2.97
2017-09-10T09:46:01.149Z,1.20
2017-09-10T09:48:27.790Z,1.80
2017-09-10T09:50:54.426Z,1.50
2017-09-10T09:53:21.061Z,1.57
2017-09-10T09:55:47.738Z,1.20
2017-09-10T09:58:14.420Z,1.17
2017-09-10T10:00:41.038Z,1.23
2017-09-10T10:03:07.678Z,0.93
2017-09-10T10:05:34.324Z,1.43
2017-09-10T10:08:00.931Z,1.70
2017-09-10T10:10:27.568Z,1.80
2017-09-10T10:12:54.193Z,1.40
2017-09-10T10:15:20.816Z,1.33
2017-09-10T10:17:47.454Z,1.43
2017-09-10T10:20:14.083Z,1.40
2017-09-10T10:22:40.738Z,1.50
2017-09-10T10:25:07.344Z,1.70
2017-09-10T10:27:33.965Z,1.40
2017-09-10T10:30:00.615Z,1.50
2017-09-10T10:32:27.222Z,1.43
2017-09-10T10:34:53.903Z,1.17
2017-09-10T10:37:20.511Z,1.20
2017-09-10T10:39:47.129Z,1.17
2017-09-10T10:42:13.768Z,1.30
2017-09-10T10:44:40.390Z,1.30
2017-09-10T10:47:07.012Z,1.60
2017-09-10T10:49:33.632Z,1.10
2017-09-10T10:52:00.271Z,0.93
2017-09-10T10:54:26.905Z,1.43
2017-09-10T10:56:53.522Z,1.30
2017-09-10T10:59:20.159Z,1.60
2017-09-10T11:01:46.806Z,1.23
2017-09-10T11:04:13.459Z,1.40
2017-09-10T11:06:40.069Z,2.07
2017-09-10T11:09:06.722Z,1.00
2017-09-10T11:11:33.345Z,1.40
2017-09-10T11:13:59.980Z,1.20
2017-09-10T11:16:26.620Z,1.13
2017-09-10T11:18:53.259Z,1.20
2017-09-10T11:21:19.881Z,1.70
2017-09-10T11:23:46.513Z,1.03
2017-09-10T11:26:13.135Z,0.97
2017-09-10T11:28:39.778Z,2.80
2017-09-10T11:31:06.462Z,1.73
2017-09-10T11:33:33.082Z,1.70
2017-09-10T11:35:59.696Z,1.20
2017-09-10T11:38:26.341Z,1.20
2017-09-10T11:40:52.979Z,1.40
2017-09-10T11:43:19.618Z,1.23
2017-09-10T11:45:46.271Z,1.07
2017-09-10T11:48:12.893Z,1.57
2017-09-10T11:50:39.516Z,0.93
2017-09-10T11:53:06.151Z,0.80
2017-09-10T11:55:32.758Z,0.90
2017-09-10T11:57:59.435Z,0.90
2017-09-10T12:00:26.050Z,1.10
2017-09-10T12:02:52.796Z,1.00
2017-09-10T12:05:19.872Z,1.43
2017-09-10T12:07:46.489Z,1.10
2017-09-10T12:10:13.129Z,1.17
2017-09-10T12:12:39.775Z,1.30
2017-09-10T12:15:06.398Z,1.30
2017-09-10T12:17:33.047Z,0.87
2017-09-10T12:19:59.678Z,1.47
2017-09-10T12:22:26.311Z,1.13
2017-09-10T12:24:52.939Z,1.10
2017-09-10T12:27:19.548Z,1.03
2017-09-10T12:29:46.204Z,1.30
2017-09-10T12:32:12.820Z,0.97
2017-09-10T12:34:39.454Z,1.17
2017-09-10T12:37:06.108Z,2.10
2017-09-10T12:39:32.739Z,1.13
2017-09-10T12:41:59.373Z,1.50
2017-09-10T12:44:26.001Z,1.60
2017-09-10T12:46:52.640Z,1.40
2017-09-10T12:49:19.653Z,1.47
2017-09-10T12:51:46.292Z,1.17
2017-09-10T12:54:12.912Z,1.00
2017-09-10T12:56:39.524Z,1.30
2017-09-10T12:59:06.159Z,1.27
2017-09-10T13:01:32.791Z,1.63
2017-09-10T13:03:59.429Z,1.10
2017-09-10T13:06:26.075Z,1.20
2017-09-10T13:08:52.708Z,1.70
2017-09-10T13:11:19.311Z,1.30
2017-09-10T13:13:45.943Z,2.20
2017-09-10T13:16:12.592Z,1.33
2017-09-10T13:18:39.198Z,0.90
2017-09-10T13:21:05.839Z,1.37
2017-09-10T13:23:32.443Z,1.30
2017-09-10T13:25:59.107Z,1.20
2017-09-10T13:28:25.742Z,1.67
2017-09-10T13:30:52.354Z,1.37
2017-09-10T13:33:18.980Z,1.37
2017-09-10T13:35:45.612Z,1.50
2017-09-10T13:38:12.258Z,1.00
2017-09-10T13:40:38.892Z,1.00
2017-09-10T13:43:05.546Z,0.93
2017-09-10T13:45:32.430Z,1.40
2017-09-10T13:47:59.056Z,1.00
2017-09-10T13:50:25.682Z,1.60
2017-09-10T13:52:52.323Z,1.10
2017-09-10T13:55:18.963Z,1.27
2017-09-10T13:57:45.578Z,0.97
2017-09-10T14:00:12.214Z,1.50
2017-09-10T14:02:38.811Z,1.20
2017-09-10T14:05:05.473Z,1.60
2017-09-10T14:07:32.126Z,1.80
2017-09-10T14:09:58.798Z,1.67
2017-09-10T14:12:25.416Z,1.20
2017-09-10T14:14:52.067Z,1.03
2017-09-10T14:17:18.667Z,1.00
2017-09-10T14:19:45.276Z,1.67
2017-09-10T14:22:11.924Z,0.80
2017-09-10T14:24:38.534Z,3.87
2017-09-10T14:27:05.200Z,0.93
2017-09-10T14:29:31.816Z,1.27
2017-09-10T14:31:58.436Z,1.10
2017-09-10T14:34:25.089Z,1.00
2017-09-10T14:36:51.715Z,1.13
2017-09-10T14:39:18.363Z,1.50
2017-09-10T14:41:44.980Z,1.27
2017-09-10T14:44:11.652Z,1.33
2017-09-10T14:46:38.260Z,1.17
2017-09-10T14:49:04.871Z,1.03
2017-09-10T14:51:31.519Z,1.20
2017-09-10T14:53:58.129Z,1.03
2017-09-10T14:56:24.773Z,1.47
2017-09-10T14:58:51.375Z,1.17
2017-09-10T15:01:18.010Z,2.20
2017-09-10T15:03:44.639Z,1.33
2017-09-10T15:06:11.243Z,1.50
2017-09-10T15:08:37.891Z,1.50
2017-09-10T15:11:04.515Z,1.20
2017-09-10T15:13:31.152Z,1.40
2017-09-10T15:15:57.793Z,1.00
2017-09-10T15:18:24.415Z,1.13
2017-09-10T15:20:51.055Z,1.10
2017-09-10T15:23:17.704Z,1.23
2017-09-10T15:25:44.331Z,1.03
2017-09-10T15:28:10.963Z,1.40
2017-09-10T15:30:37.590Z,1.27
2017-09-10T15:33:04.255Z,1.00
2017-09-10T15:35:30.880Z,0.97
2017-09-10T15:37:57.519Z,0.97
2017-09-10T15:40:24.164Z,1.40
2017-09-10T15:42:50.770Z,1.60
2017-09-10T15:45:17.399Z,1.40
2017-09-10T15:47:44.023Z,1.53
2017-09-10T15:50:10.659Z,1.17
2017-09-10T15:52:37.306Z,1.17
2017-09-10T15:55:03.951Z,1.43
2017-09-10T15:57:30.581Z,1.33
2017-09-10T15:59:57.211Z,1.37
2017-09-10T16:02:23.867Z,1.07
2017-09-10T16:04:50.482Z,1.23
2017-09-10T16:07:17.152Z,1.20
2017-09-10T16:09:43.776Z,1.07
2017-09-10T16:12:10.401Z,1.23
2017-09-10T16:14:37.057Z,0.90
2017-09-10T16:17:03.686Z,1.80
2017-09-10T16:19:30.307Z,1.00
2017-09-10T16:21:56.932Z,1.13
2017-09-10T16:24:23.575Z,0.87
2017-09-10T16:26:50.203Z,0.87
2017-09-10T16:29:16.837Z,2.30
2017-09-10T16:31:43.479Z,1.20
2017-09-10T16:34:10.107Z,1.20
2017-09-10T16:36:36.747Z,1.83
2017-09-10T16:39:03.395Z,1.07
2017-09-10T16:41:30.041Z,1.40
2017-09-10T16:43:56.678Z,1.40
2017-09-10T16:46:23.310Z,1.47
2017-09-10T16:48:49.943Z,1.13
2017-09-10T16:51:16.603Z,1.10
2017-09-10T16:53:43.230Z,1.87
2017-09-10T16:56:09.862Z,1.37
2017-09-10T16:58:36.501Z,1.17
2017-09-10T17:01:03.157Z,1.03
2017-09-10T17:03:29.799Z,1.67
2017-09-10T17:05:56.466Z,1.37
2017-09-10T17:08:23.071Z,1.37
2017-09-10T17:10:49.720Z,1.17
2017-09-10T17:13:16.368Z,1.10
2017-09-10T17:15:43.026Z,1.50
2017-09-10T17:18:09.625Z,1.13
2017-09-10T17:20:36.244Z,1.20
2017-09-10T17:23:02.857Z,1.67
2017-09-10T17:25:29.495Z,1.30
2017-09-10T17:27:56.146Z,1.30
2017-09-10T17:30:22.775Z,1.80
2017-09-10T17:32:49.427Z,2.00
2017-09-10T17:35:16.059Z,1.77
2017-09-10T17:37:42.692Z,1.30
2017-09-10T17:40:09.309Z,2.03
2017-09-10T17:42:35.960Z,1.10
2017-09-10T17:45:02.591Z,2.10
2017-09-10T17:47:29.210Z,1.23
2017-09-10T17:49:55.860Z,1.50
2017-09-10T17:52:22.491Z,1.43
2017-09-10T17:54:49.149Z,1.67
2017-09-10T17:57:15.759Z,1.77
2017-09-10T17:59:42.410Z,1.90
2017-09-10T18:02:09.026Z,1.10
2017-09-10T18:04:35.664Z,2.07
2017-09-10T18:07:02.332Z,2.90
2017-09-10T18:09:28.986Z,1.60
2017-09-10T18:11:55.608Z,2.10
2017-09-10T18:14:22.224Z,2.97
2017-09-10T18:16:48.855Z,2.80
2017-09-10T18:19:15.505Z,1.97
2017-09-10T18:21:42.159Z,2.00
2017-09-10T18:24:08.803Z,2.27
2017-09-10T18:26:35.445Z,2.03
2017-09-10T18:29:02.099Z,2.27
2017-09-10T18:31:28.717Z,1.87
2017-09-10T18:33:55.355Z,1.83
2017-09-10T18:36:22.008Z,1.63
2017-09-10T18:38:48.644Z,1.47
2017-09-10T18:41:15.269Z,2.70
2017-09-10T18:43:41.943Z,2.23
2017-09-10T18:46:08.626Z,1.57
2017-09-10T18:48:35.270Z,2.50
2017-09-10T18:51:01.941Z,1.93
2017-09-10T18:53:28.559Z,1.70
2017-09-10T18:55:55.200Z,1.67
2017-09-10T18:58:21.819Z,1.77
2017-09-10T19:00:48.479Z,2.40
2017-09-10T19:03:15.130Z,1.77
2017-09-10T19:05:41.786Z,2.40
2017-09-10T19:08:08.449Z,1.80
2017-09-10T19:10:35.085Z,1.80
2017-09-10T19:13:01.701Z,1.53
2017-09-10T19:15:28.356Z,1.90
2017-09-10T19:17:54.993Z,2.00
2017-09-10T19:20:21.652Z,2.30
2017-09-10T19:22:48.307Z,1.90
2017-09-10T19:25:14.958Z,2.00
2017-09-10T19:27:41.600Z,2.00
2017-09-10T19:30:08.216Z,2.47
2017-09-10T19:32:35.118Z,2.10
2017-09-10T19:35:01.769Z,1.50
2017-09-10T19:37:28.416Z,1.63
2017-09-10T19:39:55.062Z,2.10
2017-09-10T19:42:21.680Z,2.20
2017-09-10T19:44:48.308Z,1.60
2017-09-10T19:47:14.964Z,2.53
2017-09-10T19:49:41.575Z,2.00
2017-09-10T19:52:08.226Z,2.00
2017-09-10T19:54:34.850Z,1.50
2017-09-10T19:57:01.475Z,2.17
2017-09-10T19:59:28.735Z,2.17
2017-09-10T20:01:55.349Z,2.03
2017-09-10T20:04:21.974Z,1.60
2017-09-10T20:06:48.642Z,2.10
2017-09-10T20:09:15.255Z,2.17
2017-09-10T20:11:41.908Z,1.83
2017-09-10T20:14:08.554Z,1.70
2017-09-10T20:16:35.183Z,2.20
2017-09-10T20:19:01.844Z,1.83
2017-09-10T20:21:28.503Z,2.07
2017-09-10T20:23:55.182Z,2.07
2017-09-10T20:26:21.807Z,1.83
2017-09-10T20:28:48.425Z,1.93
2017-09-10T20:31:15.059Z,2.70
2017-09-10T20:33:41.735Z,1.93
2017-09-10T20:36:08.353Z,1.70
2017-09-10T20:38:34.985Z,1.77
2017-09-10T20:41:01.615Z,1.73
2017-09-10T20:43:28.227Z,1.60
2017-09-10T20:45:54.875Z,2.20
2017-09-10T20:48:21.498Z,1.83
2017-09-10T20:50:48.144Z,2.43
2017-09-10T20:53:14.797Z,2.40
2017-09-10T20:55:41.442Z,1.90
2017-09-10T20:58:08.066Z,1.80
2017-09-10T21:00:34.712Z,2.73
2017-09-10T21:03:01.347Z,1.70
2017-09-10T21:05:27.994Z,1.70
2017-09-10T21:07:54.642Z,1.80
2017-09-10T21:10:21.259Z,1.83
2017-09-10T21:12:47.923Z,1.53
2017-09-10T21:15:14.535Z,1.90
2017-09-10T21:17:41.212Z,2.50
2017-09-10T21:20:07.850Z,2.10
2017-09-10T21:22:34.471Z,1.87
2017-09-10T21:25:01.109Z,2.20
2017-09-10T21:27:27.796Z,2.20
2017-09-10T21:29:54.406Z,2.00
2017-09-10T21:32:21.034Z,1.70
2017-09-10T21:34:47.678Z,1.73
2017-09-10T21:37:14.298Z,2.30
2017-09-10T21:39:40.928Z,1.80
2017-09-10T21:42:07.579Z,1.80
2017-09-10T21:44:34.191Z,1.67
2017-09-10T21:47:01.201Z,1.53
2017-09-10T21:49:27.833Z,2.10
2017-09-10T21:51:54.459Z,1.97
2017-09-10T21:54:21.098Z,1.80
2017-09-10T21:56:47.724Z,2.47
2017-09-10T21:59:14.347Z,2.10
2017-09-10T22:01:40.983Z,2.50
2017-09-10T22:04:07.630Z,2.30
2017-09-10T22:06:34.267Z,2.20
2017-09-10T22:09:01.134Z,1.93
2017-09-10T22:11:27.772Z,2.87
2017-09-10T22:13:54.701Z,2.43
2017-09-10T22:16:21.313Z,2.40
2017-09-10T22:18:47.982Z,2.23
2017-09-10T22:21:14.622Z,2.37
2017-09-10T22:23:41.267Z,2.47
2017-09-10T22:26:07.863Z,2.93
2017-09-10T22:28:34.498Z,2.07
2017-09-10T22:31:01.135Z,1.83
2017-09-10T22:33:27.758Z,2.37
2017-09-10T22:35:54.439Z,2.03
2017-09-10T22:38:21.045Z,1.97
2017-09-10T22:40:47.667Z,1.70
2017-09-10T22:43:14.304Z,2.10
2017-09-10T22:45:40.944Z,2.50
2017-09-10T22:48:07.581Z,2.03
2017-09-10T22:50:34.175Z,2.30
2017-09-10T22:53:00.855Z,2.00
2017-09-10T22:55:27.466Z,1.90
2017-09-10T22:57:54.109Z,2.73
2017-09-10T23:00:20.760Z,2.10
2017-09-10T23:02:47.403Z,2.30
2017-09-10T23:05:14.035Z,2.57
2017-09-10T23:07:40.647Z,2.93
2017-09-10T23:10:07.293Z,2.30
2017-09-10T23:12:33.911Z,2.17
2017-09-10T23:15:00.531Z,2.60
2017-09-10T23:17:27.154Z,2.30
2017-09-10T23:19:53.783Z,1.80
2017-09-10T23:22:20.451Z,1.90
2017-09-10T23:24:47.076Z,3.23
2017-09-10T23:27:13.687Z,2.30
2017-09-10T23:29:40.335Z,2.73
2017-09-10T23:32:06.975Z,2.63
2017-09-10T23:34:33.605Z,2.00
2017-09-10T23:37:00.271Z,1.70
2017-09-10T23:39:27.167Z,2.30
2017-09-10T23:41:53.776Z,2.70
2017-09-10T23:44:20.418Z,2.70
2017-09-10T23:46:47.038Z,2.43
2017-09-10T23:49:13.670Z,1.80
2017-09-10T23:51:40.296Z,3.00
2017-09-10T23:54:06.905Z,2.47
2017-09-10T23:56:33.548Z,2.30
2017-09-10T23:59:00.173Z,2.13
